createdAt,value
2018-10-07T00:00:54.125Z,63.67
2018-10-07T00:02:58.960Z,63.72
2018-10-07T00:05:03.753Z,64.15
2018-10-07T00:07:08.878Z,64.31
2018-10-07T00:09:13.678Z,63.67
2018-10-07T00:11:18.619Z,64.16
2018-10-07T00:13:23.378Z,63.75
2018-10-07T00:17:34.383Z,64.04
2018-10-07T00:19:39.044Z,64.30
2018-10-07T00:21:43.818Z,64.67
2018-10-07T00:23:48.562Z,64.66
2018-10-07T00:25:53.273Z,63.71
2018-10-07T00:27:58.070Z,63.45
2018-10-07T00:30:02.845Z,63.96
2018-10-07T00:32:12.897Z,64.49
2018-10-07T00:34:17.656Z,64.63
2018-10-07T00:36:22.437Z,63.80
2018-10-07T00:38:27.174Z,63.80
2018-10-07T00:40:31.833Z,64.13
2018-10-07T00:42:36.668Z,64.57
2018-10-07T00:44:41.425Z,64.80
2018-10-07T00:46:46.139Z,64.49
2018-10-07T00:48:50.964Z,64.72
2018-10-07T00:50:55.711Z,64.47
2018-10-07T00:53:00.448Z,64.37
2018-10-07T00:55:05.634Z,64.11
2018-10-07T00:57:10.652Z,64.54
2018-10-07T00:59:15.464Z,65.01
2018-10-07T01:01:20.306Z,64.96
2018-10-07T01:03:25.035Z,64.32
2018-10-07T01:05:29.738Z,65.08
2018-10-07T01:07:34.458Z,65.33
2018-10-07T01:09:39.113Z,65.26
2018-10-07T01:11:43.802Z,64.82
2018-10-07T01:13:48.522Z,64.65
2018-10-07T01:15:53.240Z,63.86
2018-10-07T01:17:58.012Z,64.08
2018-10-07T01:20:02.754Z,63.79
2018-10-07T01:22:07.471Z,63.77
2018-10-07T01:24:12.253Z,64.14
2018-10-07T01:26:17.073Z,64.86
2018-10-07T01:28:21.810Z,64.90
2018-10-07T01:30:26.550Z,65.12
2018-10-07T01:32:31.340Z,64.95
2018-10-07T01:34:35.994Z,64.47
2018-10-07T01:36:40.593Z,64.82
2018-10-07T01:38:45.278Z,64.68
2018-10-07T01:40:50.014Z,64.68
2018-10-07T01:42:54.724Z,64.56
2018-10-07T01:44:59.563Z,64.68
2018-10-07T01:47:04.358Z,65.38
2018-10-07T01:49:09.099Z,66.33
2018-10-07T01:51:13.889Z,66.39
2018-10-07T01:53:18.796Z,67.43
2018-10-07T01:55:23.505Z,67.45
2018-10-07T01:57:28.182Z,68.02
2018-10-07T01:59:33.118Z,68.83
2018-10-07T02:01:37.806Z,69.71
2018-10-07T02:03:42.585Z,70.42
2018-10-07T02:08:02.993Z,70.46
2018-10-07T02:10:07.822Z,70.59
2018-10-07T02:12:12.552Z,71.92
2018-10-07T02:14:17.394Z,71.05
2018-10-07T02:16:22.291Z,71.54
2018-10-07T02:18:27.127Z,71.77
2018-10-07T02:20:32.012Z,72.29
2018-10-07T02:22:36.835Z,72.37
2018-10-07T02:24:41.539Z,72.37
2018-10-07T02:26:46.545Z,72.92
2018-10-07T02:28:51.275Z,72.41
2018-10-07T02:30:56.058Z,73.44
2018-10-07T02:33:01.001Z,72.88
2018-10-07T02:35:05.757Z,73.14
2018-10-07T02:37:10.407Z,72.70
2018-10-07T02:39:15.126Z,73.10
2018-10-07T02:41:19.901Z,72.95
2018-10-07T02:43:24.631Z,73.22
2018-10-07T02:45:29.347Z,73.17
2018-10-07T02:47:34.129Z,73.54
2018-10-07T02:49:38.914Z,73.40
2018-10-07T02:51:43.943Z,73.95
2018-10-07T02:53:48.761Z,73.76
2018-10-07T02:55:53.574Z,73.74
2018-10-07T02:58:00.001Z,74.12
2018-10-07T03:00:04.885Z,73.74
2018-10-07T03:02:09.551Z,74.24
2018-10-07T03:04:14.404Z,73.63
2018-10-07T03:06:19.265Z,73.98
2018-10-07T03:08:24.049Z,74.01
2018-10-07T03:10:28.853Z,74.73
2018-10-07T03:12:33.791Z,74.91
2018-10-07T03:14:38.628Z,75.55
2018-10-07T03:16:43.333Z,74.87
2018-10-07T03:18:48.235Z,74.89
2018-10-07T03:20:53.097Z,74.92
2018-10-07T03:22:57.886Z,75.28
2018-10-07T03:25:02.677Z,75.22
2018-10-07T03:27:07.506Z,74.36
2018-10-07T03:29:12.299Z,74.96
2018-10-07T03:31:16.953Z,75.01
2018-10-07T03:33:21.683Z,74.92
2018-10-07T03:35:26.342Z,74.99
2018-10-07T03:37:31.067Z,75.15
2018-10-07T03:39:35.789Z,75.13
2018-10-07T03:41:40.782Z,74.12
2018-10-07T03:43:45.528Z,74.00
2018-10-07T03:45:50.367Z,73.88
2018-10-07T03:47:55.234Z,73.01
2018-10-07T03:50:00.167Z,73.40
2018-10-07T03:52:05.074Z,73.54
2018-10-07T03:54:09.842Z,74.22
2018-10-07T03:56:14.663Z,74.52
2018-10-07T03:58:19.484Z,73.50
2018-10-07T04:00:24.255Z,73.88
2018-10-07T04:02:29.052Z,73.66
2018-10-07T04:04:33.869Z,73.08
2018-10-07T04:06:38.719Z,72.75
2018-10-07T04:08:43.596Z,72.84
2018-10-07T04:10:48.370Z,73.52
2018-10-07T04:12:53.132Z,73.76
2018-10-07T04:14:57.935Z,73.91
2018-10-07T04:17:03.180Z,73.06
2018-10-07T04:19:08.886Z,73.15
2018-10-07T04:21:13.817Z,73.11
2018-10-07T04:23:18.709Z,72.69
2018-10-07T04:25:23.775Z,73.45
2018-10-07T04:27:28.769Z,73.21
2018-10-07T04:29:33.722Z,73.03
2018-10-07T04:31:38.451Z,72.80
2018-10-07T04:33:43.382Z,72.92
2018-10-07T04:35:48.124Z,72.88
2018-10-07T04:37:53.008Z,72.12
2018-10-07T04:39:57.764Z,72.63
2018-10-07T04:42:02.458Z,73.23
2018-10-07T04:44:07.339Z,73.79
2018-10-07T04:46:12.197Z,73.83
2018-10-07T04:48:16.885Z,74.06
2018-10-07T04:50:21.594Z,73.89
2018-10-07T04:52:26.326Z,73.40
2018-10-07T04:54:31.007Z,73.69
2018-10-07T04:56:36.143Z,73.58
2018-10-07T04:58:40.903Z,73.35
2018-10-07T05:00:45.644Z,73.63
2018-10-07T05:02:50.463Z,73.58
2018-10-07T05:04:55.249Z,73.76
2018-10-07T05:07:00.077Z,73.76
2018-10-07T05:09:10.161Z,74.17
2018-10-07T05:11:15.064Z,74.58
2018-10-07T05:13:22.430Z,74.35
2018-10-07T05:15:28.448Z,74.30
2018-10-07T05:17:33.610Z,74.00
2018-10-07T05:19:38.455Z,74.18
2018-10-07T05:21:43.355Z,74.05
2018-10-07T05:23:48.552Z,73.41
2018-10-07T05:25:53.413Z,73.23
2018-10-07T05:27:58.323Z,73.13
2018-10-07T05:30:03.197Z,72.60
2018-10-07T05:32:08.038Z,72.21
2018-10-07T05:34:12.886Z,71.52
2018-10-07T05:36:17.892Z,71.89
2018-10-07T05:38:22.646Z,72.23
2018-10-07T05:40:27.389Z,72.30
2018-10-07T05:42:32.256Z,72.24
2018-10-07T05:44:37.313Z,72.65
2018-10-07T05:46:42.143Z,72.23
2018-10-07T05:48:47.233Z,71.71
2018-10-07T05:50:52.387Z,71.09
2018-10-07T05:52:57.235Z,70.52
2018-10-07T05:55:02.217Z,69.67
2018-10-07T05:57:07.108Z,69.37
2018-10-07T05:59:12.115Z,69.47
2018-10-07T06:01:32.304Z,70.08
2018-10-07T06:04:59.471Z,69.83
2018-10-07T06:07:05.244Z,69.26
2018-10-07T06:09:14.474Z,68.94
2018-10-07T06:11:19.468Z,68.92
2018-10-07T06:13:25.760Z,68.61
2018-10-07T06:15:39.588Z,68.83
2018-10-07T06:17:44.506Z,68.46
2018-10-07T06:19:50.638Z,67.09
2018-10-07T06:21:56.124Z,66.56
2018-10-07T06:24:02.952Z,65.61
2018-10-07T06:26:07.913Z,64.89
2018-10-07T06:28:12.847Z,64.63
2018-10-07T06:30:17.587Z,64.70
2018-10-07T06:32:22.652Z,64.98
2018-10-07T06:34:27.529Z,65.26
2018-10-07T06:36:33.060Z,64.93
2018-10-07T06:38:38.121Z,64.45
2018-10-07T06:40:43.821Z,63.88
2018-10-07T06:42:59.365Z,64.27
2018-10-07T06:45:07.127Z,64.42
2018-10-07T06:47:15.233Z,64.63
2018-10-07T06:49:20.333Z,64.87
2018-10-07T06:51:26.054Z,64.46
2018-10-07T06:53:30.907Z,64.32
2018-10-07T06:55:35.820Z,63.46
2018-10-07T06:57:40.617Z,63.28
2018-10-07T06:59:45.847Z,63.55
2018-10-07T07:01:50.923Z,63.15
2018-10-07T07:03:57.077Z,63.41
2018-10-07T07:06:01.897Z,63.25
2018-10-07T07:08:06.950Z,63.29
2018-10-07T07:10:12.212Z,62.89
2018-10-07T07:12:17.472Z,63.36
2018-10-07T07:14:22.418Z,62.88
2018-10-07T07:16:27.652Z,63.36
2018-10-07T07:18:32.481Z,63.31
2018-10-07T07:20:37.333Z,62.60
2018-10-07T07:22:42.420Z,62.59
2018-10-07T07:24:47.281Z,62.71
2018-10-07T07:26:52.277Z,63.10
2018-10-07T07:28:57.129Z,63.36
2018-10-07T07:31:01.944Z,62.95
2018-10-07T07:33:06.861Z,63.35
2018-10-07T07:35:11.772Z,63.32
2018-10-07T07:37:16.522Z,62.50
2018-10-07T07:39:21.712Z,62.80
2018-10-07T07:41:26.731Z,62.81
2018-10-07T07:43:31.656Z,63.13
2018-10-07T07:45:36.560Z,62.40
2018-10-07T07:47:41.480Z,62.20
2018-10-07T07:49:46.355Z,62.33
2018-10-07T07:51:51.361Z,62.60
2018-10-07T07:53:56.360Z,62.08
2018-10-07T07:56:01.454Z,62.11
2018-10-07T07:58:06.307Z,61.45
2018-10-07T08:00:11.248Z,61.06
2018-10-07T08:02:16.679Z,61.09
2018-10-07T08:04:21.477Z,60.86
2018-10-07T08:06:27.356Z,60.24
2018-10-07T08:08:32.249Z,59.53
2018-10-07T08:10:37.047Z,59.59
2018-10-07T08:12:41.901Z,59.26
2018-10-07T08:14:46.654Z,58.49
2018-10-07T08:16:51.627Z,58.28
2018-10-07T08:18:56.603Z,58.35
2018-10-07T08:21:01.561Z,58.08
2018-10-07T08:23:06.528Z,58.18
2018-10-07T08:25:11.791Z,57.45
2018-10-07T08:27:16.626Z,56.83
2018-10-07T08:29:21.494Z,56.99
2018-10-07T08:31:26.596Z,57.32
2018-10-07T08:33:31.549Z,57.77
2018-10-07T08:35:36.481Z,57.04
2018-10-07T08:37:41.391Z,57.14
2018-10-07T08:39:46.206Z,57.28
2018-10-07T08:41:53.178Z,57.18
2018-10-07T08:43:58.301Z,56.52
2018-10-07T08:46:03.071Z,56.33
2018-10-07T08:48:07.999Z,55.97
2018-10-07T08:50:12.948Z,56.14
2018-10-07T08:52:17.825Z,55.67
2018-10-07T08:54:22.886Z,56.11
2018-10-07T08:56:27.808Z,56.14
2018-10-07T08:58:32.854Z,55.92
2018-10-07T09:00:38.101Z,55.54
2018-10-07T09:02:42.998Z,55.05
2018-10-07T09:04:49.207Z,55.18
2018-10-07T09:06:56.472Z,55.47
2018-10-07T09:09:01.548Z,55.60
2018-10-07T09:11:06.774Z,56.45
2018-10-07T09:13:11.599Z,56.33
2018-10-07T09:15:16.506Z,56.03
2018-10-07T09:17:21.400Z,56.61
2018-10-07T09:19:26.404Z,56.94
2018-10-07T09:21:31.660Z,56.88
2018-10-07T09:23:36.584Z,56.87
2018-10-07T09:25:41.732Z,57.08
2018-10-07T09:27:47.432Z,56.89
2018-10-07T09:29:52.566Z,56.01
2018-10-07T09:31:57.763Z,56.13
2018-10-07T09:34:02.559Z,55.80
2018-10-07T09:36:07.427Z,55.99
2018-10-07T09:38:12.157Z,55.49
2018-10-07T09:40:17.292Z,54.60
2018-10-07T09:42:22.410Z,54.38
2018-10-07T09:44:33.818Z,53.47
2018-10-07T09:46:39.275Z,52.76
2018-10-07T09:48:44.492Z,50.98
2018-10-07T09:50:49.619Z,50.32
2018-10-07T09:52:54.768Z,48.57
2018-10-07T09:54:59.890Z,48.93
2018-10-07T09:57:04.768Z,48.84
2018-10-07T09:59:09.830Z,48.32
2018-10-07T10:01:14.857Z,48.38
2018-10-07T10:03:20.093Z,48.22
2018-10-07T10:05:25.325Z,48.12
2018-10-07T10:07:30.231Z,48.84
2018-10-07T10:09:35.038Z,48.01
2018-10-07T10:11:46.494Z,48.21
2018-10-07T10:13:51.576Z,48.21
2018-10-07T10:15:56.472Z,48.58
2018-10-07T10:18:04.720Z,48.92
2018-10-07T10:20:11.583Z,49.89
2018-10-07T10:22:35.586Z,49.68
2018-10-07T10:25:11.790Z,50.43
2018-10-07T10:28:21.560Z,49.84
2018-10-07T10:30:38.088Z,50.07
2018-10-07T10:33:13.151Z,49.27
2018-10-07T10:38:17.016Z,47.37
2018-10-07T10:40:29.279Z,47.11
2018-10-07T10:42:45.800Z,46.64
2018-10-07T10:44:54.805Z,46.38
2018-10-07T10:47:41.804Z,46.66
2018-10-07T10:49:58.067Z,46.53
2018-10-07T10:52:36.773Z,45.44
2018-10-07T10:54:48.122Z,45.67
2018-10-07T10:57:34.185Z,45.18
2018-10-07T11:00:05.139Z,45.64
2018-10-07T11:04:28.360Z,45.11
2018-10-07T11:06:49.695Z,45.81
2018-10-07T11:09:23.704Z,44.69
2018-10-07T11:11:49.510Z,45.37
2018-10-07T11:14:00.544Z,44.99
2018-10-07T11:16:34.810Z,45.01
2018-10-07T11:18:53.413Z,44.72
2018-10-07T11:21:25.971Z,44.92
2018-10-07T11:23:54.457Z,45.01
2018-10-07T11:27:08.177Z,45.31
2018-10-07T11:29:50.902Z,45.16
2018-10-07T11:32:08.750Z,44.94
2018-10-07T11:34:30.309Z,44.36
2018-10-07T11:39:24.581Z,44.38
2018-10-07T11:41:41.804Z,44.29
2018-10-07T11:43:59.723Z,44.54
2018-10-07T11:46:17.017Z,44.39
2018-10-07T11:50:54.077Z,43.51
2018-10-07T11:53:26.167Z,43.62
2018-10-07T11:55:31.351Z,43.30
2018-10-07T11:57:36.371Z,43.23
2018-10-07T11:59:41.586Z,43.13
2018-10-07T12:01:46.893Z,42.91
2018-10-07T12:03:51.982Z,42.48
2018-10-07T12:05:57.203Z,42.20
2018-10-07T12:08:02.176Z,43.06
2018-10-07T12:10:07.866Z,43.19
2018-10-07T12:12:13.442Z,42.41
2018-10-07T12:14:18.606Z,42.70
2018-10-07T12:16:24.844Z,42.67
2018-10-07T12:18:30.160Z,42.50
2018-10-07T12:20:36.120Z,42.10
2018-10-07T12:22:41.379Z,42.29
2018-10-07T12:24:47.311Z,42.41
2018-10-07T12:26:53.424Z,42.97
2018-10-07T12:28:59.328Z,42.72
2018-10-07T12:31:08.547Z,42.66
2018-10-07T12:33:14.667Z,42.87
2018-10-07T12:35:20.870Z,42.43
2018-10-07T12:37:26.334Z,42.62
2018-10-07T12:39:32.969Z,42.70
2018-10-07T12:41:37.901Z,42.60
2018-10-07T12:43:42.840Z,42.92
2018-10-07T12:45:47.955Z,41.81
2018-10-07T12:47:52.987Z,42.07
2018-10-07T12:49:57.983Z,42.03
2018-10-07T12:52:02.992Z,41.89
2018-10-07T12:54:08.423Z,42.17
2018-10-07T12:56:13.834Z,42.49
2018-10-07T12:58:19.178Z,41.69
2018-10-07T13:00:24.171Z,41.57
2018-10-07T13:02:29.260Z,41.59
2018-10-07T13:04:34.281Z,41.98
2018-10-07T13:06:39.352Z,41.40
2018-10-07T13:08:44.382Z,41.43
2018-10-07T13:10:49.253Z,41.21
2018-10-07T13:12:53.988Z,40.90
2018-10-07T13:14:59.333Z,40.89
2018-10-07T13:17:04.130Z,40.89
2018-10-07T13:19:09.186Z,40.68
2018-10-07T13:21:14.368Z,41.19
2018-10-07T13:23:19.218Z,40.76
2018-10-07T13:25:24.304Z,40.84
2018-10-07T13:27:29.779Z,40.19
2018-10-07T13:29:34.750Z,40.67
2018-10-07T13:31:39.718Z,40.93
2018-10-07T13:33:45.354Z,40.63
2018-10-07T13:35:50.470Z,40.76
2018-10-07T13:37:55.507Z,40.82
2018-10-07T13:40:02.251Z,40.40
2018-10-07T13:42:08.832Z,40.47
2018-10-07T13:44:13.912Z,40.92
2018-10-07T13:46:18.999Z,40.86
2018-10-07T13:48:24.182Z,40.49
2018-10-07T13:50:28.951Z,40.53
2018-10-07T13:52:33.940Z,40.19
2018-10-07T13:54:38.863Z,40.29
2018-10-07T13:56:43.950Z,40.18
2018-10-07T13:58:49.108Z,39.98
2018-10-07T14:00:54.287Z,39.33
2018-10-07T14:02:59.506Z,39.59
2018-10-07T14:05:04.771Z,40.66
2018-10-07T14:07:09.903Z,40.56
2018-10-07T14:09:15.074Z,39.69
2018-10-07T14:11:20.486Z,39.74
2018-10-07T14:13:25.834Z,40.16
2018-10-07T14:15:31.018Z,40.15
2018-10-07T14:17:36.379Z,40.35
2018-10-07T14:19:42.061Z,39.85
2018-10-07T14:21:47.029Z,40.15
2018-10-07T14:23:52.010Z,40.09
2018-10-07T14:25:57.138Z,40.17
2018-10-07T14:28:01.879Z,39.88
2018-10-07T14:30:07.043Z,40.12
2018-10-07T14:32:12.378Z,39.93
2018-10-07T14:34:17.782Z,39.85
2018-10-07T14:36:22.620Z,40.00
2018-10-07T14:38:27.624Z,40.15
2018-10-07T14:40:32.909Z,40.73
2018-10-07T14:42:37.856Z,41.11
2018-10-07T14:44:42.924Z,40.74
2018-10-07T14:46:48.049Z,41.04
2018-10-07T14:48:53.131Z,41.26
2018-10-07T14:50:58.005Z,40.94
2018-10-07T14:53:03.007Z,41.49
2018-10-07T14:55:07.939Z,40.59
2018-10-07T14:57:12.691Z,40.39
2018-10-07T14:59:17.822Z,40.32
2018-10-07T15:01:22.653Z,40.80
2018-10-07T15:03:27.495Z,40.63
2018-10-07T15:05:32.765Z,40.78
2018-10-07T15:07:37.714Z,40.99
2018-10-07T15:09:42.892Z,41.07
2018-10-07T15:11:47.704Z,40.65
2018-10-07T15:13:52.616Z,40.74
2018-10-07T15:15:57.556Z,41.01
2018-10-07T15:18:02.729Z,40.85
2018-10-07T15:20:07.847Z,40.57
2018-10-07T15:22:12.827Z,40.63
2018-10-07T15:24:18.561Z,40.69
2018-10-07T15:26:23.624Z,40.37
2018-10-07T15:28:28.519Z,40.36
2018-10-07T15:30:33.525Z,40.10
2018-10-07T15:32:38.458Z,40.10
2018-10-07T15:34:43.499Z,40.60
2018-10-07T15:36:48.531Z,40.70
2018-10-07T15:38:53.655Z,40.58
2018-10-07T15:40:58.887Z,40.37
2018-10-07T15:43:03.967Z,40.37
2018-10-07T15:45:09.125Z,40.71
2018-10-07T15:47:14.026Z,40.35
2018-10-07T15:49:18.815Z,40.53
2018-10-07T15:51:23.874Z,40.71
2018-10-07T15:53:29.132Z,40.95
2018-10-07T15:55:34.141Z,40.66
2018-10-07T15:57:39.170Z,40.95
2018-10-07T15:59:44.334Z,41.29
2018-10-07T16:01:49.299Z,41.02
2018-10-07T16:03:54.207Z,41.05
2018-10-07T16:05:59.335Z,41.06
2018-10-07T16:08:04.341Z,41.01
2018-10-07T16:10:09.717Z,41.52
2018-10-07T16:12:15.146Z,41.78
2018-10-07T16:14:20.533Z,41.59
2018-10-07T16:16:25.964Z,41.64
2018-10-07T16:18:31.116Z,42.10
2018-10-07T16:20:37.699Z,41.67
2018-10-07T16:22:42.988Z,42.04
2018-10-07T16:24:48.348Z,41.99
2018-10-07T16:26:53.446Z,42.34
2018-10-07T16:28:58.788Z,42.36
2018-10-07T16:31:03.798Z,42.87
2018-10-07T16:33:08.809Z,42.59
2018-10-07T16:35:14.137Z,42.92
2018-10-07T16:37:19.150Z,43.25
2018-10-07T16:39:24.238Z,43.45
2018-10-07T16:41:29.600Z,43.34
2018-10-07T16:43:34.728Z,43.43
2018-10-07T16:45:39.819Z,43.45
2018-10-07T16:47:47.821Z,43.80
2018-10-07T16:49:53.265Z,43.92
2018-10-07T16:51:58.614Z,44.17
2018-10-07T16:54:03.695Z,44.49
2018-10-07T16:56:08.816Z,44.82
2018-10-07T16:58:14.253Z,44.92
2018-10-07T17:00:19.513Z,45.09
2018-10-07T17:02:24.692Z,45.42
2018-10-07T17:04:29.932Z,45.37
2018-10-07T17:06:35.707Z,45.54
2018-10-07T17:08:40.900Z,45.72
2018-10-07T17:10:46.110Z,45.57
2018-10-07T17:12:51.094Z,45.97
2018-10-07T17:14:56.021Z,46.13
2018-10-07T17:17:01.470Z,46.09
2018-10-07T17:19:06.861Z,46.55
2018-10-07T17:21:18.198Z,46.44
2018-10-07T17:23:23.368Z,46.68
2018-10-07T17:25:28.323Z,47.13
2018-10-07T17:27:33.928Z,47.19
2018-10-07T17:29:39.000Z,47.61
2018-10-07T17:31:44.631Z,47.79
2018-10-07T17:33:49.985Z,48.00
2018-10-07T17:35:55.694Z,47.66
2018-10-07T17:38:00.857Z,47.68
2018-10-07T17:40:06.299Z,47.78
2018-10-07T17:42:11.386Z,48.01
2018-10-07T17:44:16.406Z,47.64
2018-10-07T17:46:23.707Z,48.08
2018-10-07T17:48:29.020Z,48.08
2018-10-07T17:50:34.451Z,48.17
2018-10-07T17:52:40.277Z,48.45
2018-10-07T17:54:45.363Z,48.04
2018-10-07T17:56:50.202Z,48.25
2018-10-07T17:58:55.134Z,48.12
2018-10-07T18:01:00.089Z,48.02
2018-10-07T18:03:05.375Z,47.80
2018-10-07T18:05:10.145Z,48.09
2018-10-07T18:07:15.513Z,48.26
2018-10-07T18:09:20.745Z,48.21
2018-10-07T18:11:25.674Z,48.40
2018-10-07T18:13:30.530Z,48.35
2018-10-07T18:15:35.483Z,48.22
2018-10-07T18:17:40.803Z,48.54
2018-10-07T18:19:45.861Z,48.58
2018-10-07T18:21:51.857Z,48.58
2018-10-07T18:23:56.915Z,49.20
2018-10-07T18:26:01.992Z,49.14
2018-10-07T18:28:07.674Z,49.31
2018-10-07T18:30:12.832Z,49.08
2018-10-07T18:32:18.758Z,49.78
2018-10-07T18:34:24.019Z,49.67
2018-10-07T18:36:29.245Z,50.00
2018-10-07T18:38:34.729Z,50.21
2018-10-07T18:40:40.059Z,50.07
2018-10-07T18:42:46.852Z,50.25
2018-10-07T18:44:52.284Z,50.31
2018-10-07T18:46:57.583Z,50.23
2018-10-07T18:49:03.430Z,50.20
2018-10-07T18:51:08.362Z,50.04
2018-10-07T18:53:13.813Z,50.21
2018-10-07T18:55:19.990Z,50.23
2018-10-07T18:57:25.409Z,50.50
2018-10-07T18:59:30.799Z,50.60
2018-10-07T19:01:35.672Z,50.67
2018-10-07T19:03:42.136Z,50.76
2018-10-07T19:05:47.382Z,50.91
2018-10-07T19:07:52.784Z,50.75
2018-10-07T19:09:57.984Z,50.81
2018-10-07T19:12:09.926Z,51.14
2018-10-07T19:14:15.243Z,51.15
2018-10-07T19:16:21.599Z,51.47
2018-10-07T19:18:26.463Z,51.71
2018-10-07T19:20:31.490Z,51.85
2018-10-07T19:22:36.851Z,51.96
2018-10-07T19:24:42.947Z,52.21
2018-10-07T19:26:48.310Z,52.44
2018-10-07T19:28:53.589Z,52.38
2018-10-07T19:30:58.823Z,52.52
2018-10-07T19:33:04.073Z,52.22
2018-10-07T19:35:08.975Z,52.38
2018-10-07T19:37:14.743Z,52.40
2018-10-07T19:39:19.622Z,52.47
2018-10-07T19:41:24.715Z,52.50
2018-10-07T19:43:29.764Z,52.73
2018-10-07T19:45:35.057Z,52.81
2018-10-07T19:47:40.268Z,52.98
2018-10-07T19:49:46.666Z,52.93
2018-10-07T19:51:52.181Z,53.25
2018-10-07T19:53:59.156Z,53.15
2018-10-07T19:56:06.922Z,53.05
2018-10-07T19:58:13.105Z,53.25
2018-10-07T20:00:21.847Z,53.56
2018-10-07T20:02:32.052Z,53.61
2018-10-07T20:04:38.860Z,53.78
2018-10-07T20:06:46.041Z,53.89
2018-10-07T20:08:52.003Z,53.77
2018-10-07T20:10:58.902Z,53.92
2018-10-07T20:13:05.152Z,54.08
2018-10-07T20:15:11.101Z,53.90
2018-10-07T20:17:16.541Z,53.80
2018-10-07T20:19:22.491Z,53.95
2018-10-07T20:21:30.879Z,54.19
2018-10-07T20:23:36.876Z,53.86
2018-10-07T20:25:42.655Z,54.09
2018-10-07T20:27:48.765Z,54.16
2018-10-07T20:31:56.061Z,53.92
2018-10-07T20:34:02.103Z,53.86
2018-10-07T20:36:07.880Z,53.74
2018-10-07T20:38:13.272Z,53.97
2018-10-07T20:40:18.487Z,54.16
2018-10-07T20:42:25.015Z,54.31
2018-10-07T20:44:30.805Z,54.31
2018-10-07T20:46:36.146Z,54.59
2018-10-07T20:48:41.147Z,54.55
2018-10-07T20:50:46.240Z,54.63
2018-10-07T20:52:52.464Z,54.81
2018-10-07T20:54:57.785Z,54.96
2018-10-07T20:57:03.306Z,55.12
2018-10-07T20:59:08.791Z,55.17
2018-10-07T21:01:16.203Z,55.34
2018-10-07T21:03:21.268Z,55.49
2018-10-07T21:05:26.871Z,55.53
2018-10-07T21:07:31.938Z,55.80
2018-10-07T21:09:37.071Z,55.80
2018-10-07T21:11:42.528Z,56.72
2018-10-07T21:13:47.626Z,56.59
2018-10-07T21:15:52.694Z,56.41
2018-10-07T21:17:57.603Z,56.50
2018-10-07T21:20:02.522Z,56.30
2018-10-07T21:22:07.490Z,56.98
2018-10-07T21:24:12.544Z,57.14
2018-10-07T21:26:17.513Z,57.09
2018-10-07T21:28:22.529Z,56.94
2018-10-07T21:30:27.713Z,56.93
2018-10-07T21:32:39.304Z,57.22
2018-10-07T21:34:44.180Z,57.34
2018-10-07T21:36:49.078Z,58.01
2018-10-07T21:38:53.992Z,58.06
2018-10-07T21:40:58.807Z,58.18
2018-10-07T21:43:03.643Z,58.08
2018-10-07T21:45:08.436Z,58.31
2018-10-07T21:47:13.309Z,58.28
2018-10-07T21:49:18.093Z,58.38
2018-10-07T21:51:23.075Z,58.78
2018-10-07T21:53:28.935Z,58.99
2018-10-07T21:55:34.032Z,58.86
2018-10-07T21:57:38.972Z,58.26
2018-10-07T21:59:43.850Z,58.53
2018-10-07T22:01:48.655Z,58.65
2018-10-07T22:03:53.527Z,58.54
2018-10-07T22:05:58.442Z,58.76
2018-10-07T22:08:03.381Z,59.04
2018-10-07T22:10:08.233Z,59.08
2018-10-07T22:12:12.991Z,59.15
2018-10-07T22:14:17.772Z,59.22
2018-10-07T22:16:22.595Z,59.65
2018-10-07T22:18:27.429Z,59.51
2018-10-07T22:20:32.167Z,59.65
2018-10-07T22:22:36.864Z,59.73
2018-10-07T22:24:41.617Z,59.87
2018-10-07T22:26:46.563Z,59.41
2018-10-07T22:28:51.352Z,59.17
2018-10-07T22:30:56.166Z,59.77
2018-10-07T22:33:01.173Z,59.73
2018-10-07T22:35:06.252Z,59.94
2018-10-07T22:37:11.193Z,59.89
2018-10-07T22:39:15.966Z,60.12
2018-10-07T22:41:21.771Z,60.08
2018-10-07T22:43:26.582Z,60.13
2018-10-07T22:45:31.397Z,60.24
2018-10-07T22:47:36.288Z,60.58
2018-10-07T22:49:41.131Z,60.95
2018-10-07T22:51:46.155Z,60.47
2018-10-07T22:53:50.990Z,60.76
2018-10-07T22:55:55.752Z,60.85
2018-10-07T22:58:00.568Z,61.09
2018-10-07T23:00:05.672Z,61.36
2018-10-07T23:02:10.506Z,61.10
2018-10-07T23:04:15.257Z,61.15
2018-10-07T23:06:19.972Z,61.31
2018-10-07T23:08:24.613Z,61.38
2018-10-07T23:10:29.338Z,61.48
2018-10-07T23:12:34.119Z,61.65
2018-10-07T23:14:38.784Z,61.46
2018-10-07T23:16:43.595Z,61.41
2018-10-07T23:18:48.410Z,61.47
2018-10-07T23:20:53.229Z,61.65
2018-10-07T23:22:57.903Z,61.82
2018-10-07T23:25:02.606Z,61.75
2018-10-07T23:27:07.532Z,61.95
2018-10-07T23:29:12.223Z,62.24
2018-10-07T23:31:16.971Z,62.64
2018-10-07T23:33:22.083Z,62.64
2018-10-07T23:35:26.790Z,62.99
2018-10-07T23:37:31.635Z,63.17
2018-10-07T23:39:36.357Z,63.19
2018-10-07T23:41:41.114Z,63.22
2018-10-07T23:43:46.392Z,63.43
2018-10-07T23:45:51.065Z,63.52
2018-10-07T23:47:55.771Z,63.28
2018-10-07T23:50:00.514Z,63.48
2018-10-07T23:52:05.341Z,63.91
2018-10-07T23:54:10.169Z,64.02
2018-10-07T23:56:15.015Z,64.05
2018-10-07T23:58:19.794Z,64.22
